sensor_id;sensor_type;location;lat;lon;timestamp;pressure;altitude;pressure_sealevel;temperature;humidity
78373;BME280;67656;52.074;4.758;2023-07-13T00:00:41;101367.22;;;18.10;100.00
78373;BME280;67656;52.074;4.758;2023-07-13T00:05:42;101376.94;;;17.94;100.00
78373;BME280;67656;52.074;4.758;2023-07-13T00:10:42;101366.56;;;17.88;100.00
78373;BME280;67656;52.074;4.758;2023-07-13T00:15:43;101367.25;;;17.91;100.00
78373;BME280;67656;52.074;4.758;2023-07-13T00:20:43;101363.59;;;17.94;100.00
78373;BME280;67656;52.074;4.758;2023-07-13T00:25:44;101365.53;;;17.90;100.00
78373;BME280;67656;52.074;4.758;2023-07-13T00:30:44;101373.19;;;17.98;100.00
78373;BME280;67656;52.074;4.758;2023-07-13T00:35:45;101375.22;;;18.10;100.00
78373;BME280;67656;52.074;4.758;2023-07-13T00:40:46;101369.88;;;18.10;100.00
78373;BME280;67656;52.074;4.758;2023-07-13T00:50:50;101374.78;;;18.20;100.00
78373;BME280;67656;52.074;4.758;2023-07-13T00:55:53;101362.81;;;18.09;100.00
78373;BME280;67656;52.074;4.758;2023-07-13T01:00:56;101373.19;;;18.16;100.00
78373;BME280;67656;52.074;4.758;2023-07-13T01:05:57;101379.47;;;18.15;100.00
78373;BME280;67656;52.074;4.758;2023-07-13T01:10:58;101369.88;;;18.10;100.00
78373;BME280;67656;52.074;4.758;2023-07-13T01:16:03;101383.47;;;18.06;100.00
78373;BME280;67656;52.074;4.758;2023-07-13T01:21:05;101374.88;;;17.81;100.00
78373;BME280;67656;52.074;4.758;2023-07-13T01:26:06;101380.66;;;17.72;100.00
78373;BME280;67656;52.074;4.758;2023-07-13T01:31:06;101385.91;;;17.56;100.00
78373;BME280;67656;52.074;4.758;2023-07-13T01:36:08;101383.22;;;17.56;100.00
78373;BME280;67656;52.074;4.758;2023-07-13T01:41:09;101388.66;;;17.55;100.00
78373;BME280;67656;52.074;4.758;2023-07-13T01:46:09;101395.56;;;17.40;100.00
78373;BME280;67656;52.074;4.758;2023-07-13T01:51:10;101399.63;;;17.48;100.00
78373;BME280;67656;52.074;4.758;2023-07-13T01:56:11;101407.13;;;17.40;100.00
78373;BME280;67656;52.074;4.758;2023-07-13T02:01:11;101406.41;;;17.37;100.00
78373;BME280;67656;52.074;4.758;2023-07-13T02:06:12;101407.13;;;17.40;100.00
78373;BME280;67656;52.074;4.758;2023-07-13T02:11:12;101410.81;;;17.38;100.00
78373;BME280;67656;52.074;4.758;2023-07-13T02:16:13;101414.66;;;17.32;100.00
78373;BME280;67656;52.074;4.758;2023-07-13T02:21:14;101414.47;;;17.35;100.00
78373;BME280;67656;52.074;4.758;2023-07-13T02:26:14;101406.13;;;17.24;100.00
78373;BME280;67656;52.074;4.758;2023-07-13T02:31:15;101394.97;;;17.15;100.00
78373;BME280;67656;52.074;4.758;2023-07-13T02:36:16;101394.16;;;17.13;100.00
78373;BME280;67656;52.074;4.758;2023-07-13T02:41:18;101395.22;;;17.09;100.00
78373;BME280;67656;52.074;4.758;2023-07-13T02:46:20;101405.41;;;17.01;100.00
78373;BME280;67656;52.074;4.758;2023-07-13T02:51:20;101400.19;;;16.98;100.00
78373;BME280;67656;52.074;4.758;2023-07-13T02:56:26;101401.88;;;17.00;100.00
78373;BME280;67656;52.074;4.758;2023-07-13T03:01:27;101403.53;;;17.03;100.00
78373;BME280;67656;52.074;4.758;2023-07-13T03:06:27;101410.28;;;17.10;100.00
78373;BME280;67656;52.074;4.758;2023-07-13T03:11:28;101415.63;;;17.10;100.00
78373;BME280;67656;52.074;4.758;2023-07-13T03:16:37;101416.06;;;17.01;100.00
78373;BME280;67656;52.074;4.758;2023-07-13T03:21:38;101418.59;;;17.04;100.00
78373;BME280;67656;52.074;4.758;2023-07-13T03:26:38;101404.69;;;16.97;100.00
78373;BME280;67656;52.074;4.758;2023-07-13T03:31:40;101413.72;;;16.93;100.00
78373;BME280;67656;52.074;4.758;2023-07-13T03:36:41;101421.00;;;16.89;100.00
78373;BME280;67656;52.074;4.758;2023-07-13T03:41:45;101429.00;;;16.89;100.00
78373;BME280;67656;52.074;4.758;2023-07-13T03:46:46;101430.31;;;17.00;100.00
78373;BME280;67656;52.074;4.758;2023-07-13T03:51:49;101431.03;;;17.03;100.00
78373;BME280;67656;52.074;4.758;2023-07-13T03:56:49;101440.56;;;17.09;100.00
78373;BME280;67656;52.074;4.758;2023-07-13T04:01:52;101440.72;;;17.06;100.00
78373;BME280;67656;52.074;4.758;2023-07-13T04:06:52;101452.31;;;17.05;100.00
78373;BME280;67656;52.074;4.758;2023-07-13T04:11:53;101451.31;;;17.08;100.00
78373;BME280;67656;52.074;4.758;2023-07-13T04:16:53;101457.03;;;17.19;100.00
78373;BME280;67656;52.074;4.758;2023-07-13T04:21:54;101454.66;;;17.13;100.00
78373;BME280;67656;52.074;4.758;2023-07-13T04:26:54;101465.69;;;17.24;100.00
78373;BME280;67656;52.074;4.758;2023-07-13T04:31:55;101461.19;;;17.25;100.00
78373;BME280;67656;52.074;4.758;2023-07-13T04:36:55;101471.53;;;17.32;100.00
78373;BME280;67656;52.074;4.758;2023-07-13T04:41:56;101475.69;;;17.38;100.00
78373;BME280;67656;52.074;4.758;2023-07-13T04:46:56;101473.84;;;17.40;100.00
78373;BME280;67656;52.074;4.758;2023-07-13T04:51:56;101488.81;;;17.62;100.00
78373;BME280;67656;52.074;4.758;2023-07-13T04:56:57;101479.53;;;17.71;100.00
78373;BME280;67656;52.074;4.758;2023-07-13T05:01:57;101487.78;;;17.84;100.00
78373;BME280;67656;52.074;4.758;2023-07-13T05:06:59;101493.31;;;17.80;100.00
78373;BME280;67656;52.074;4.758;2023-07-13T05:12:00;101489.09;;;17.94;100.00
78373;BME280;67656;52.074;4.758;2023-07-13T05:17:00;101486.66;;;18.26;100.00
78373;BME280;67656;52.074;4.758;2023-07-13T05:22:01;101492.81;;;18.46;100.00
78373;BME280;67656;52.074;4.758;2023-07-13T05:27:01;101503.63;;;18.60;100.00
78373;BME280;67656;52.074;4.758;2023-07-13T05:32:02;101496.50;;;18.61;100.00
78373;BME280;67656;52.074;4.758;2023-07-13T05:37:02;101492.88;;;18.97;100.00
78373;BME280;67656;52.074;4.758;2023-07-13T05:42:03;101499.94;;;18.80;100.00
78373;BME280;67656;52.074;4.758;2023-07-13T05:47:04;101504.69;;;19.42;100.00
78373;BME280;67656;52.074;4.758;2023-07-13T05:52:05;101503.69;;;20.25;100.00
78373;BME280;67656;52.074;4.758;2023-07-13T05:57:07;101497.81;;;20.79;100.00
78373;BME280;67656;52.074;4.758;2023-07-13T06:02:09;101497.09;;;21.21;100.00
78373;BME280;67656;52.074;4.758;2023-07-13T06:07:10;101502.81;;;20.85;100.00
78373;BME280;67656;52.074;4.758;2023-07-13T06:12:12;101507.38;;;20.38;100.00
78373;BME280;67656;52.074;4.758;2023-07-13T06:17:13;101524.84;;;19.65;100.00
78373;BME280;67656;52.074;4.758;2023-07-13T06:22:13;101526.19;;;19.90;100.00
78373;BME280;67656;52.074;4.758;2023-07-13T06:27:15;101549.91;;;19.80;100.00
78373;BME280;67656;52.074;4.758;2023-07-13T06:32:16;101555.63;;;18.90;100.00
78373;BME280;67656;52.074;4.758;2023-07-13T06:37:16;101566.25;;;17.81;100.00
78373;BME280;67656;52.074;4.758;2023-07-13T06:42:16;101561.13;;;17.17;100.00
78373;BME280;67656;52.074;4.758;2023-07-13T06:47:17;101575.22;;;16.78;100.00
78373;BME280;67656;52.074;4.758;2023-07-13T06:52:18;101586.72;;;17.01;100.00
78373;BME280;67656;52.074;4.758;2023-07-13T06:57:18;101586.66;;;17.23;100.00
78373;BME280;67656;52.074;4.758;2023-07-13T07:02:19;101579.09;;;17.73;100.00
78373;BME280;67656;52.074;4.758;2023-07-13T07:07:19;101583.22;;;17.40;100.00
78373;BME280;67656;52.074;4.758;2023-07-13T07:12:20;101581.84;;;18.09;100.00
78373;BME280;67656;52.074;4.758;2023-07-13T07:17:21;101579.25;;;20.00;100.00
78373;BME280;67656;52.074;4.758;2023-07-13T07:22:21;101563.56;;;19.76;100.00
78373;BME280;67656;52.074;4.758;2023-07-13T07:27:22;101552.47;;;21.51;100.00
78373;BME280;67656;52.074;4.758;2023-07-13T07:32:23;101568.59;;;20.61;100.00
78373;BME280;67656;52.074;4.758;2023-07-13T07:37:23;101572.63;;;19.57;100.00
78373;BME280;67656;52.074;4.758;2023-07-13T07:42:24;101590.00;;;18.97;100.00
78373;BME280;67656;52.074;4.758;2023-07-13T07:47:26;101593.34;;;19.02;100.00
78373;BME280;67656;52.074;4.758;2023-07-13T07:52:26;101585.38;;;20.80;100.00
78373;BME280;67656;52.074;4.758;2023-07-13T07:57:27;101565.69;;;22.24;100.00
78373;BME280;67656;52.074;4.758;2023-07-13T08:02:27;101556.72;;;22.11;100.00
78373;BME280;67656;52.074;4.758;2023-07-13T08:07:30;101574.44;;;20.53;100.00
78373;BME280;67656;52.074;4.758;2023-07-13T08:12:34;101593.00;;;19.76;100.00
78373;BME280;67656;52.074;4.758;2023-07-13T08:17:35;101582.53;;;19.55;100.00
78373;BME280;67656;52.074;4.758;2023-07-13T08:22:35;101578.03;;;20.21;100.00
78373;BME280;67656;52.074;4.758;2023-07-13T08:27:36;101579.88;;;19.55;100.00
78373;BME280;67656;52.074;4.758;2023-07-13T08:32:37;101578.22;;;20.18;100.00
78373;BME280;67656;52.074;4.758;2023-07-13T08:37:37;101591.91;;;19.80;100.00
78373;BME280;67656;52.074;4.758;2023-07-13T08:42:55;101584.78;;;19.97;100.00
78373;BME280;67656;52.074;4.758;2023-07-13T08:48:02;101573.25;;;20.73;100.00
78373;BME280;67656;52.074;4.758;2023-07-13T08:53:04;101596.47;;;19.11;100.00
78373;BME280;67656;52.074;4.758;2023-07-13T08:58:12;101617.69;;;18.79;100.00
78373;BME280;67656;52.074;4.758;2023-07-13T09:03:20;101617.63;;;18.44;100.00
78373;BME280;67656;52.074;4.758;2023-07-13T09:08:43;101614.88;;;18.99;100.00
78373;BME280;67656;52.074;4.758;2023-07-13T09:13:52;101616.41;;;20.22;100.00
78373;BME280;67656;52.074;4.758;2023-07-13T09:19:00;101616.03;;;20.60;100.00
78373;BME280;67656;52.074;4.758;2023-07-13T09:29:31;101605.59;;;22.03;100.00
78373;BME280;67656;52.074;4.758;2023-07-13T09:34:34;101605.56;;;21.02;100.00
78373;BME280;67656;52.074;4.758;2023-07-13T09:39:39;101618.41;;;20.18;100.00
78373;BME280;67656;52.074;4.758;2023-07-13T09:54:54;101617.25;;;22.46;100.00
78373;BME280;67656;52.074;4.758;2023-07-13T09:59:55;101636.31;;;21.41;100.00
78373;BME280;67656;52.074;4.758;2023-07-13T10:04:58;101647.59;;;20.55;100.00
78373;BME280;67656;52.074;4.758;2023-07-13T10:10:00;101651.94;;;19.76;100.00
78373;BME280;67656;52.074;4.758;2023-07-13T10:15:02;101659.19;;;19.91;100.00
78373;BME280;67656;52.074;4.758;2023-07-13T10:20:05;101661.25;;;22.16;100.00
78373;BME280;67656;52.074;4.758;2023-07-13T10:25:17;101645.19;;;23.11;100.00
78373;BME280;67656;52.074;4.758;2023-07-13T10:30:24;101653.53;;;21.37;100.00
78373;BME280;67656;52.074;4.758;2023-07-13T10:35:27;101669.81;;;20.73;100.00
78373;BME280;67656;52.074;4.758;2023-07-13T10:40:35;101656.13;;;21.98;100.00
78373;BME280;67656;52.074;4.758;2023-07-13T10:45:41;101666.41;;;22.48;100.00
78373;BME280;67656;52.074;4.758;2023-07-13T10:50:43;101663.72;;;23.15;100.00
78373;BME280;67656;52.074;4.758;2023-07-13T11:01:06;101668.47;;;23.89;100.00
78373;BME280;67656;52.074;4.758;2023-07-13T11:16:37;101682.72;;;23.66;100.00
78373;BME280;67656;52.074;4.758;2023-07-13T11:22:11;101675.97;;;25.09;100.00
78373;BME280;67656;52.074;4.758;2023-07-13T11:27:43;101679.56;;;24.61;100.00
78373;BME280;67656;52.074;4.758;2023-07-13T11:32:50;101679.41;;;25.11;100.00
78373;BME280;67656;52.074;4.758;2023-07-13T11:37:51;101683.31;;;24.71;100.00
78373;BME280;67656;52.074;4.758;2023-07-13T11:42:51;101677.03;;;23.57;100.00
78373;BME280;67656;52.074;4.758;2023-07-13T11:47:52;101690.91;;;25.37;100.00
78373;BME280;67656;52.074;4.758;2023-07-13T11:52:54;101684.47;;;25.85;100.00
78373;BME280;67656;52.074;4.758;2023-07-13T11:58:23;101690.75;;;26.31;96.00
78373;BME280;67656;52.074;4.758;2023-07-13T12:03:45;101696.97;;;25.17;98.00
78373;BME280;67656;52.074;4.758;2023-07-13T12:09:01;101677.16;;;24.32;100.00
78373;BME280;67656;52.074;4.758;2023-07-13T12:14:05;101687.59;;;24.49;95.34
78373;BME280;67656;52.074;4.758;2023-07-13T12:19:16;101690.06;;;24.02;100.00
78373;BME280;67656;52.074;4.758;2023-07-13T12:24:20;101689.31;;;23.61;100.00
78373;BME280;67656;52.074;4.758;2023-07-13T12:29:21;101697.44;;;24.37;97.78
78373;BME280;67656;52.074;4.758;2023-07-13T12:34:24;101707.16;;;24.64;97.43
78373;BME280;67656;52.074;4.758;2023-07-13T12:39:36;101691.44;;;25.42;92.07
78373;BME280;67656;52.074;4.758;2023-07-13T12:44:40;101679.72;;;25.89;93.30
78373;BME280;67656;52.074;4.758;2023-07-13T12:49:57;101686.75;;;23.99;100.00
78373;BME280;67656;52.074;4.758;2023-07-13T12:55:16;101688.00;;;24.06;98.93
78373;BME280;67656;52.074;4.758;2023-07-13T13:00:30;101694.59;;;24.39;100.00
78373;BME280;67656;52.074;4.758;2023-07-13T13:05:32;101698.59;;;23.96;100.00
78373;BME280;67656;52.074;4.758;2023-07-13T13:10:33;101703.50;;;23.38;100.00
78373;BME280;67656;52.074;4.758;2023-07-13T13:15:33;101704.63;;;23.48;100.00
78373;BME280;67656;52.074;4.758;2023-07-13T13:20:34;101712.06;;;23.17;100.00
78373;BME280;67656;52.074;4.758;2023-07-13T13:25:35;101710.34;;;23.16;100.00
78373;BME280;67656;52.074;4.758;2023-07-13T13:30:35;101708.72;;;23.92;98.52
78373;BME280;67656;52.074;4.758;2023-07-13T13:36:05;101719.25;;;23.44;100.00
78373;BME280;67656;52.074;4.758;2023-07-13T13:41:13;101719.00;;;23.21;100.00
78373;BME280;67656;52.074;4.758;2023-07-13T13:46:20;101732.59;;;23.33;100.00
78373;BME280;67656;52.074;4.758;2023-07-13T13:51:22;101723.72;;;23.71;100.00
78373;BME280;67656;52.074;4.758;2023-07-13T13:56:23;101724.69;;;24.59;100.00
78373;BME280;67656;52.074;4.758;2023-07-13T14:01:31;101715.59;;;23.84;100.00
78373;BME280;67656;52.074;4.758;2023-07-13T14:06:32;101729.00;;;24.11;99.42
78373;BME280;67656;52.074;4.758;2023-07-13T14:11:33;101731.78;;;23.84;100.00
78373;BME280;67656;52.074;4.758;2023-07-13T14:16:34;101707.72;;;23.93;100.00
78373;BME280;67656;52.074;4.758;2023-07-13T14:21:35;101721.19;;;23.29;100.00
78373;BME280;67656;52.074;4.758;2023-07-13T14:26:52;101711.75;;;23.49;98.92
78373;BME280;67656;52.074;4.758;2023-07-13T14:31:53;101716.94;;;24.78;94.23
78373;BME280;67656;52.074;4.758;2023-07-13T14:36:58;101721.88;;;23.97;100.00
78373;BME280;67656;52.074;4.758;2023-07-13T14:41:59;101719.97;;;24.49;94.65
78373;BME280;67656;52.074;4.758;2023-07-13T14:47:03;101741.31;;;24.52;96.54
78373;BME280;67656;52.074;4.758;2023-07-13T14:52:20;101736.44;;;24.58;99.45
78373;BME280;67656;52.074;4.758;2023-07-13T14:57:21;101728.84;;;25.00;98.89
78373;BME280;67656;52.074;4.758;2023-07-13T15:02:31;101743.38;;;25.10;94.92
78373;BME280;67656;52.074;4.758;2023-07-13T15:07:33;101722.72;;;24.61;96.92
78373;BME280;67656;52.074;4.758;2023-07-13T15:12:33;101719.44;;;25.06;95.73
78373;BME280;67656;52.074;4.758;2023-07-13T15:18:07;101728.56;;;24.54;96.32
78373;BME280;67656;52.074;4.758;2023-07-13T15:23:14;101722.41;;;24.90;97.94
78373;BME280;67656;52.074;4.758;2023-07-13T15:28:15;101728.66;;;25.14;95.66
78373;BME280;67656;52.074;4.758;2023-07-13T15:33:35;101732.03;;;24.69;98.05
78373;BME280;67656;52.074;4.758;2023-07-13T15:38:43;101730.47;;;24.28;100.00
78373;BME280;67656;52.074;4.758;2023-07-13T15:43:44;101726.53;;;24.08;100.00
78373;BME280;67656;52.074;4.758;2023-07-13T15:48:48;101725.47;;;23.98;100.00
78373;BME280;67656;52.074;4.758;2023-07-13T15:53:49;101713.88;;;24.21;100.00
78373;BME280;67656;52.074;4.758;2023-07-13T15:58:51;101730.00;;;24.84;96.77
78373;BME280;67656;52.074;4.758;2023-07-13T16:09:21;101727.41;;;23.96;100.00
78373;BME280;67656;52.074;4.758;2023-07-13T16:14:23;101718.84;;;24.15;100.00
78373;BME280;67656;52.074;4.758;2023-07-13T16:19:23;101727.53;;;24.81;93.39
78373;BME280;67656;52.074;4.758;2023-07-13T16:24:24;101723.63;;;24.11;100.00
78373;BME280;67656;52.074;4.758;2023-07-13T16:29:27;101734.34;;;24.37;98.49
78373;BME280;67656;52.074;4.758;2023-07-13T16:34:42;101735.28;;;23.99;100.00
78373;BME280;67656;52.074;4.758;2023-07-13T16:39:56;101729.88;;;23.99;100.00
78373;BME280;67656;52.074;4.758;2023-07-13T16:44:57;101737.81;;;24.13;100.00
78373;BME280;67656;52.074;4.758;2023-07-13T16:49:59;101726.81;;;24.16;100.00
78373;BME280;67656;52.074;4.758;2023-07-13T16:55:02;101729.63;;;23.76;100.00
78373;BME280;67656;52.074;4.758;2023-07-13T17:00:44;101728.88;;;23.74;100.00
78373;BME280;67656;52.074;4.758;2023-07-13T17:05:39;101733.97;;;24.04;100.00
78373;BME280;67656;52.074;4.758;2023-07-13T17:10:42;101728.72;;;24.40;100.00
78373;BME280;67656;52.074;4.758;2023-07-13T17:15:49;101738.28;;;24.07;100.00
78373;BME280;67656;52.074;4.758;2023-07-13T17:20:50;101727.25;;;23.58;100.00
78373;BME280;67656;52.074;4.758;2023-07-13T17:25:54;101726.78;;;23.39;100.00
78373;BME280;67656;52.074;4.758;2023-07-13T17:30:56;101735.75;;;23.39;100.00
78373;BME280;67656;52.074;4.758;2023-07-13T17:36:00;101723.72;;;23.71;100.00
78373;BME280;67656;52.074;4.758;2023-07-13T17:41:01;101724.56;;;23.18;100.00
78373;BME280;67656;52.074;4.758;2023-07-13T17:46:02;101734.06;;;22.69;100.00
78373;BME280;67656;52.074;4.758;2023-07-13T17:51:02;101737.59;;;22.84;100.00
78373;BME280;67656;52.074;4.758;2023-07-13T17:56:03;101732.56;;;22.92;100.00
78373;BME280;67656;52.074;4.758;2023-07-13T18:01:04;101737.63;;;22.42;100.00
78373;BME280;67656;52.074;4.758;2023-07-13T18:06:08;101739.59;;;22.53;100.00
78373;BME280;67656;52.074;4.758;2023-07-13T18:11:10;101735.09;;;22.53;100.00
78373;BME280;67656;52.074;4.758;2023-07-13T18:16:16;101727.31;;;22.49;100.00
78373;BME280;67656;52.074;4.758;2023-07-13T18:21:17;101738.84;;;22.36;100.00
78373;BME280;67656;52.074;4.758;2023-07-13T18:26:18;101746.31;;;22.17;100.00
78373;BME280;67656;52.074;4.758;2023-07-13T18:31:21;101740.75;;;22.05;100.00
78373;BME280;67656;52.074;4.758;2023-07-13T18:36:23;101736.53;;;21.87;100.00
78373;BME280;67656;52.074;4.758;2023-07-13T18:41:23;101745.72;;;21.38;100.00
78373;BME280;67656;52.074;4.758;2023-07-13T18:46:27;101756.47;;;21.38;100.00
78373;BME280;67656;52.074;4.758;2023-07-13T18:51:27;101749.75;;;21.14;100.00
78373;BME280;67656;52.074;4.758;2023-07-13T18:56:30;101751.31;;;21.18;100.00
78373;BME280;67656;52.074;4.758;2023-07-13T19:01:50;101763.19;;;21.14;100.00
78373;BME280;67656;52.074;4.758;2023-07-13T19:07:14;101765.91;;;20.82;100.00
78373;BME280;67656;52.074;4.758;2023-07-13T19:12:38;101760.53;;;20.82;100.00
78373;BME280;67656;52.074;4.758;2023-07-13T19:18:00;101767.25;;;20.58;100.00
78373;BME280;67656;52.074;4.758;2023-07-13T19:23:10;101763.06;;;20.36;100.00
78373;BME280;67656;52.074;4.758;2023-07-13T19:28:30;101766.88;;;20.32;100.00
78373;BME280;67656;52.074;4.758;2023-07-13T19:33:38;101768.25;;;20.23;100.00
78373;BME280;67656;52.074;4.758;2023-07-13T19:38:39;101763.91;;;20.20;100.00
78373;BME280;67656;52.074;4.758;2023-07-13T19:43:40;101759.75;;;20.15;100.00
78373;BME280;67656;52.074;4.758;2023-07-13T19:48:41;101768.38;;;20.04;100.00
78373;BME280;67656;52.074;4.758;2023-07-13T19:53:42;101779.56;;;19.94;100.00
78373;BME280;67656;52.074;4.758;2023-07-13T19:58:45;101774.03;;;19.98;100.00
78373;BME280;67656;52.074;4.758;2023-07-13T20:03:48;101772.69;;;19.71;100.00
78373;BME280;67656;52.074;4.758;2023-07-13T20:08:49;101770.50;;;19.44;100.00
78373;BME280;67656;52.074;4.758;2023-07-13T20:13:49;101769.63;;;19.44;100.00
78373;BME280;67656;52.074;4.758;2023-07-13T20:18:50;101780.69;;;19.18;100.00
78373;BME280;67656;52.074;4.758;2023-07-13T20:23:51;101777.03;;;19.21;100.00
78373;BME280;67656;52.074;4.758;2023-07-13T20:28:51;101781.66;;;18.98;100.00
78373;BME280;67656;52.074;4.758;2023-07-13T20:33:52;101785.47;;;18.93;100.00
78373;BME280;67656;52.074;4.758;2023-07-13T20:38:55;101776.75;;;18.89;100.00
78373;BME280;67656;52.074;4.758;2023-07-13T20:44:24;101794.09;;;18.80;100.00
78373;BME280;67656;52.074;4.758;2023-07-13T20:49:25;101785.50;;;18.73;100.00
78373;BME280;67656;52.074;4.758;2023-07-13T20:54:25;101782.59;;;18.59;100.00
78373;BME280;67656;52.074;4.758;2023-07-13T21:00:08;101786.38;;;18.74;100.00
78373;BME280;67656;52.074;4.758;2023-07-13T21:05:43;101785.84;;;18.66;100.00
78373;BME280;67656;52.074;4.758;2023-07-13T21:10:43;101791.72;;;18.55;100.00
78373;BME280;67656;52.074;4.758;2023-07-13T21:15:47;101790.25;;;18.48;100.00
78373;BME280;67656;52.074;4.758;2023-07-13T21:20:50;101793.00;;;18.46;100.00
78373;BME280;67656;52.074;4.758;2023-07-13T21:25:54;101791.13;;;18.48;100.00
78373;BME280;67656;52.074;4.758;2023-07-13T21:30:58;101783.19;;;18.47;100.00
78373;BME280;67656;52.074;4.758;2023-07-13T21:36:02;101794.59;;;18.31;100.00
78373;BME280;67656;52.074;4.758;2023-07-13T21:41:18;101791.75;;;18.34;100.00
78373;BME280;67656;52.074;4.758;2023-07-13T21:46:22;101784.47;;;18.19;100.00
78373;BME280;67656;52.074;4.758;2023-07-13T21:51:27;101793.84;;;18.27;100.00
78373;BME280;67656;52.074;4.758;2023-07-13T21:56:28;101790.06;;;18.13;100.00
78373;BME280;67656;52.074;4.758;2023-07-13T22:01:31;101785.94;;;18.05;100.00
78373;BME280;67656;52.074;4.758;2023-07-13T22:06:34;101774.72;;;17.97;100.00
78373;BME280;67656;52.074;4.758;2023-07-13T22:11:35;101779.72;;;17.84;100.00
78373;BME280;67656;52.074;4.758;2023-07-13T22:16:35;101787.13;;;17.77;100.00
78373;BME280;67656;52.074;4.758;2023-07-13T22:21:36;101779.13;;;17.77;100.00
78373;BME280;67656;52.074;4.758;2023-07-13T22:26:37;101783.31;;;17.83;100.00
78373;BME280;67656;52.074;4.758;2023-07-13T22:31:37;101783.09;;;17.88;100.00
78373;BME280;67656;52.074;4.758;2023-07-13T22:36:39;101782.47;;;17.83;100.00
78373;BME280;67656;52.074;4.758;2023-07-13T22:41:39;101781.03;;;17.94;100.00
78373;BME280;67656;52.074;4.758;2023-07-13T22:46:40;101780.31;;;17.91;100.00
78373;BME280;67656;52.074;4.758;2023-07-13T22:51:40;101783.19;;;17.86;100.00
78373;BME280;67656;52.074;4.758;2023-07-13T22:56:41;101782.31;;;17.86;100.00
78373;BME280;67656;52.074;4.758;2023-07-13T23:01:42;101796.59;;;17.85;100.00
78373;BME280;67656;52.074;4.758;2023-07-13T23:06:43;101785.50;;;17.73;100.00
78373;BME280;67656;52.074;4.758;2023-07-13T23:11:45;101778.59;;;17.69;100.00
78373;BME280;67656;52.074;4.758;2023-07-13T23:16:45;101778.41;;;17.31;100.00
78373;BME280;67656;52.074;4.758;2023-07-13T23:21:50;101786.75;;;17.44;100.00
78373;BME280;67656;52.074;4.758;2023-07-13T23:26:51;101775.22;;;17.43;100.00
78373;BME280;67656;52.074;4.758;2023-07-13T23:31:51;101783.34;;;17.40;100.00
78373;BME280;67656;52.074;4.758;2023-07-13T23:36:52;101778.66;;;17.45;100.00
78373;BME280;67656;52.074;4.758;2023-07-13T23:41:53;101780.28;;;17.49;100.00
78373;BME280;67656;52.074;4.758;2023-07-13T23:46:54;101778.81;;;17.42;100.00
78373;BME280;67656;52.074;4.758;2023-07-13T23:51:58;101768.97;;;17.65;100.00
78373;BME280;67656;52.074;4.758;2023-07-13T23:57:00;101771.16;;;17.55;100.00
